Time;durP1;ratioP1;P1;durP2;ratioP2;P2;SDS_P1;SDS_P2;PMS_P1;PMS_P2;Temp;Humidity;BMP_temperature;BMP_pressure;BME280_temperature;BME280_humidity;BME280_pressure;Samples;Min_cycle;Max_cycle;Signal;HPM_P1;HPM_P2
2022/01/05 00:00:37;;;;;;;4.00;0.98;;;1.30;99.90;;;;;;5032074;28;20132;-77
2022/01/05 00:03:04;;;;;;;5.68;1.30;;;1.30;99.90;;;;;;5033110;28;20042;-80
2022/01/05 00:05:31;;;;;;;10.23;1.27;;;1.30;99.90;;;;;;5032357;28;20060;-79
2022/01/05 00:07:56;;;;;;;7.70;1.98;;;1.30;99.90;;;;;;5033545;28;20046;-78
2022/01/05 00:17:16;;;;;;;5.40;1.30;;;1.30;99.90;;;;;;4790960;26;20440;-80
2022/01/05 00:19:43;;;;;;;6.22;1.35;;;1.30;99.90;;;;;;4993769;28;20054;-80
2022/01/05 00:22:10;;;;;;;10.13;1.83;;;1.20;99.90;;;;;;4993629;28;20050;-79
2022/01/05 00:24:36;;;;;;;8.50;1.20;;;1.20;99.90;;;;;;4993802;28;20042;-80
2022/01/05 00:27:05;;;;;;;8.82;1.75;;;1.20;99.90;;;;;;4992418;28;20042;-79
2022/01/05 00:29:31;;;;;;;5.97;1.10;;;1.20;99.90;;;;;;4993405;28;20082;-80
2022/01/05 00:31:57;;;;;;;6.88;1.35;;;1.70;99.90;;;;;;4992344;28;20085;-80
2022/01/05 00:34:22;;;;;;;5.55;1.63;;;1.30;99.90;;;;;;4976358;28;20058;-80
2022/01/05 00:36:48;;;;;;;7.45;1.33;;;1.30;99.90;;;;;;4993258;28;20570;-79
2022/01/05 00:39:14;;;;;;;7.00;1.20;;;2.30;99.90;;;;;;4975801;28;20078;-80
2022/01/05 00:41:40;;;;;;;9.13;1.30;;;1.20;99.90;;;;;;4975770;28;20051;-78
2022/01/05 00:44:06;;;;;;;7.72;1.10;;;1.20;99.90;;;;;;4993448;28;20125;-79
2022/01/05 00:46:32;;;;;;;8.55;1.35;;;1.20;99.90;;;;;;4993198;28;20531;-79
2022/01/05 00:48:57;;;;;;;5.60;1.52;;;1.20;99.90;;;;;;4992042;28;20050;-80
2022/01/05 00:51:23;;;;;;;11.85;1.83;;;1.20;99.90;;;;;;4993145;28;20404;-82
2022/01/05 00:53:48;;;;;;;11.00;2.67;;;1.30;99.90;;;;;;4975281;28;20149;-82
2022/01/05 00:56:14;;;;;;;8.25;1.73;;;1.30;99.90;;;;;;4975689;28;20552;-83
2022/01/05 00:58:40;;;;;;;6.43;1.45;;;1.30;99.90;;;;;;4991885;28;20178;-81
2022/01/05 01:01:05;;;;;;;6.88;1.35;;;1.30;99.90;;;;;;4993063;28;20050;-83
2022/01/05 01:03:31;;;;;;;17.48;2.03;;;1.30;99.90;;;;;;4993061;28;20477;-82
2022/01/05 01:05:59;;;;;;;8.38;1.73;;;1.30;99.90;;;;;;4993141;28;20404;-82
2022/01/05 01:08:25;;;;;;;10.10;1.73;;;1.30;99.90;;;;;;4991342;28;20050;-82
2022/01/05 01:10:51;;;;;;;6.88;1.80;;;1.30;99.90;;;;;;4993337;28;20042;-82
2022/01/05 01:13:18;;;;;;;8.55;2.03;;;1.30;99.90;;;;;;4991405;28;20046;-82
2022/01/05 01:15:48;;;;;;;10.98;2.13;;;1.40;99.90;;;;;;4992785;28;20500;-81
2022/01/05 01:18:14;;;;;;;10.57;1.85;;;1.40;99.90;;;;;;4993020;28;20073;-82
2022/01/05 01:20:40;;;;;;;11.07;2.72;;;1.40;99.90;;;;;;4992917;28;20047;-82
2022/01/05 01:23:06;;;;;;;8.45;1.75;;;1.40;99.90;;;;;;4991688;28;20050;-81
2022/01/05 01:25:32;;;;;;;9.10;1.55;;;1.40;99.90;;;;;;4991967;28;20392;-82
2022/01/05 01:27:58;;;;;;;7.43;1.80;;;2.10;99.90;;;;;;4995167;28;20105;-81
2022/01/05 01:30:24;;;;;;;9.38;1.52;;;1.40;99.90;;;;;;4995919;28;20038;-82
2022/01/05 01:32:49;;;;;;;9.02;1.60;;;1.40;99.90;;;;;;4996887;28;20535;-82
2022/01/05 01:35:18;;;;;;;8.75;1.60;;;1.50;99.90;;;;;;4995749;28;20042;-82
2022/01/05 01:37:43;;;;;;;12.18;1.73;;;1.50;99.90;;;;;;4996423;28;20050;-82
2022/01/05 01:40:09;;;;;;;15.93;2.17;;;1.50;99.90;;;;;;4995210;28;20041;-83
2022/01/05 01:42:36;;;;;;;8.05;1.80;;;1.50;99.90;;;;;;4996775;28;20048;-81
2022/01/05 01:45:03;;;;;;;12.30;1.88;;;1.50;99.90;;;;;;4996546;28;20042;-82
2022/01/05 01:47:28;;;;;;;9.10;1.63;;;1.50;99.90;;;;;;4996679;28;20056;-79
2022/01/05 01:49:54;;;;;;;6.07;1.30;;;1.50;99.90;;;;;;4995097;28;20416;-80
2022/01/05 01:52:20;;;;;;;9.57;1.65;;;1.50;99.90;;;;;;4994620;28;20050;-81
2022/01/05 01:54:46;;;;;;;5.55;1.40;;;1.40;99.90;;;;;;4996172;28;20122;-82
2022/01/05 01:57:12;;;;;;;9.95;1.50;;;1.50;99.90;;;;;;4996397;28;20050;-82
2022/01/05 01:59:39;;;;;;;12.70;1.35;;;1.50;99.90;;;;;;4996282;28;20053;-82
2022/01/05 02:02:05;;;;;;;7.53;1.50;;;1.50;99.90;;;;;;4996332;28;20053;-82
2022/01/05 02:04:32;;;;;;;8.98;1.90;;;1.50;99.90;;;;;;4994538;28;20054;-79
2022/01/05 02:06:58;;;;;;;10.02;1.30;;;1.50;99.90;;;;;;4996211;28;20053;-82
2022/01/05 02:09:23;;;;;;;9.07;1.60;;;1.50;99.90;;;;;;4994582;28;20562;-82
2022/01/05 02:11:49;;;;;;;8.10;1.40;;;1.40;99.90;;;;;;4994693;28;20054;-81
2022/01/05 02:14:15;;;;;;;6.53;1.38;;;1.50;99.90;;;;;;4996023;28;20050;-82
2022/01/05 02:16:44;;;;;;;8.45;1.50;;;1.50;99.90;;;;;;4994527;28;20193;-82
2022/01/05 02:19:09;;;;;;;7.13;1.58;;;1.40;99.90;;;;;;4996371;28;20525;-82
2022/01/05 02:21:39;;;;;;;8.68;1.58;;;1.40;99.90;;;;;;4994886;28;20053;-82
2022/01/05 02:24:06;;;;;;;9.38;1.23;;;1.90;99.90;;;;;;4998786;28;20407;-80
2022/01/05 02:26:33;;;;;;;10.23;1.92;;;1.40;99.90;;;;;;4996920;28;20141;-81
2022/01/05 02:28:58;;;;;;;10.88;1.70;;;1.40;99.90;;;;;;5003377;28;20055;-79
2022/01/05 02:31:25;;;;;;;11.00;1.52;;;1.40;99.90;;;;;;5002264;28;20050;-80
2022/01/05 02:33:50;;;;;;;9.95;1.40;;;1.40;99.90;;;;;;5000786;28;20074;-79
2022/01/05 02:36:19;;;;;;;6.20;1.38;;;1.40;99.90;;;;;;4996055;28;20480;-78
2022/01/05 02:38:50;;;;;;;11.82;2.08;;;1.40;99.90;;;;;;4994574;28;20485;-79
2022/01/05 02:41:16;;;;;;;10.00;1.67;;;1.50;99.90;;;;;;4995641;28;20046;-79
2022/01/05 02:43:43;;;;;;;13.90;1.88;;;1.50;99.90;;;;;;4994469;28;20042;-79
2022/01/05 02:46:11;;;;;;;9.75;1.40;;;1.50;99.90;;;;;;4995546;28;20038;-79
2022/01/05 02:48:37;;;;;;;8.75;1.60;;;1.50;99.90;;;;;;4995183;28;20050;-79
2022/01/05 02:51:05;;;;;;;12.55;1.63;;;1.50;99.90;;;;;;4993821;28;20046;-79
2022/01/05 02:53:31;;;;;;;7.90;1.77;;;1.50;99.90;;;;;;4994045;28;20046;-78
2022/01/05 02:55:56;;;;;;;6.07;1.23;;;1.50;99.90;;;;;;4995362;28;20404;-79
2022/01/05 02:58:22;;;;;;;11.07;1.63;;;1.50;99.90;;;;;;4977927;28;20057;-79
2022/01/05 03:00:48;;;;;;;6.38;1.35;;;1.60;99.90;;;;;;4995122;28;20057;-77
2022/01/05 03:03:14;;;;;;;5.97;1.30;;;1.50;99.90;;;;;;4995129;28;20052;-79
2022/01/05 03:05:40;;;;;;;13.35;1.80;;;1.50;99.90;;;;;;4994850;28;20057;-82
2022/01/05 03:08:05;;;;;;;8.15;2.80;;;1.50;99.90;;;;;;4994841;28;20408;-82
2022/01/05 03:10:31;;;;;;;12.00;1.92;;;3.00;99.90;;;;;;4993711;28;20116;-82
2022/01/05 03:12:57;;;;;;;9.43;1.33;;;1.60;99.90;;;;;;4993934;28;20129;-81
2022/01/05 03:15:22;;;;;;;7.45;1.73;;;1.50;99.90;;;;;;4993620;28;20062;-81
2022/01/05 03:17:48;;;;;;;12.65;1.92;;;1.50;99.90;;;;;;4993458;28;20050;-81
2022/01/05 03:20:17;;;;;;;11.32;2.40;;;2.10;99.90;;;;;;4994590;28;20097;-79
2022/01/05 03:22:44;;;;;;;10.43;1.40;;;1.70;99.90;;;;;;4994567;28;20054;-81
2022/01/05 03:25:15;;;;;;;12.93;2.63;;;1.50;99.90;;;;;;4994611;28;20061;-81
2022/01/05 03:27:46;;;;;;;6.10;1.40;;;1.50;99.90;;;;;;4994568;28;20125;-81
2022/01/05 03:30:14;;;;;;;13.07;1.77;;;1.50;99.90;;;;;;4994630;28;20301;-81
2022/01/05 03:35:34;;;;;;;11.57;1.70;;;1.50;99.90;;;;;;4934407;29;20051;-80
2022/01/05 03:38:00;;;;;;;9.18;1.73;;;1.50;99.90;;;;;;4934497;29;20063;-80
2022/01/05 03:40:27;;;;;;;9.85;2.20;;;1.50;99.90;;;;;;4918426;29;20071;-81
2022/01/05 03:42:53;;;;;;;12.18;2.47;;;1.60;99.90;;;;;;4934379;29;20062;-82
2022/01/05 03:45:19;;;;;;;8.88;1.50;;;1.60;99.90;;;;;;4934333;29;20208;-82
2022/01/05 03:47:46;;;;;;;8.75;1.50;;;1.70;99.90;;;;;;4933958;29;20060;-82
2022/01/05 03:50:11;;;;;;;18.58;3.03;;;1.80;99.90;;;;;;4934143;29;20501;-81
2022/01/05 03:52:37;;;;;;;14.82;1.73;;;1.90;99.90;;;;;;4934122;29;20083;-82
2022/01/05 03:55:05;;;;;;;12.55;2.38;;;1.90;99.90;;;;;;4934056;29;20463;-80
2022/01/05 03:57:32;;;;;;;12.75;1.92;;;2.00;99.90;;;;;;4918299;29;20055;-79
2022/01/05 03:59:58;;;;;;;14.35;2.97;;;2.10;99.90;;;;;;4918168;29;20058;-82
2022/01/05 04:02:24;;;;;;;13.35;2.08;;;2.10;99.90;;;;;;4917918;29;20223;-79
2022/01/05 04:04:49;;;;;;;14.77;1.77;;;2.10;99.90;;;;;;4917992;29;20130;-82
2022/01/05 04:07:16;;;;;;;11.63;1.85;;;2.10;99.90;;;;;;4917880;29;20096;-82
2022/01/05 04:09:42;;;;;;;9.18;1.98;;;2.10;99.90;;;;;;4933712;29;20111;-82
2022/01/05 04:12:08;;;;;;;12.50;2.10;;;2.10;99.90;;;;;;4943274;28;20583;-81
2022/01/05 04:14:34;;;;;;;11.32;1.90;;;2.00;99.90;;;;;;4994012;28;20046;-81
2022/01/05 04:16:59;;;;;;;10.85;2.10;;;2.00;99.90;;;;;;4992352;28;20416;-81
2022/01/05 04:19:25;;;;;;;11.73;1.95;;;2.00;99.90;;;;;;4993628;28;20050;-82
2022/01/05 04:21:51;;;;;;;15.75;2.63;;;2.00;99.90;;;;;;4991969;28;20054;-81
2022/01/05 04:24:17;;;;;;;12.77;2.20;;;1.90;99.90;;;;;;4993620;28;20052;-81
2022/01/05 04:26:42;;;;;;;13.85;2.30;;;2.00;99.90;;;;;;4993769;28;20481;-80
2022/01/05 04:29:09;;;;;;;15.85;2.08;;;2.00;99.90;;;;;;4992097;28;20046;-80
2022/01/05 04:31:34;;;;;;;11.35;1.65;;;2.00;99.90;;;;;;4992259;28;20128;-80
2022/01/05 04:34:00;;;;;;;13.00;1.90;;;2.10;99.90;;;;;;4992444;28;20133;-79
2022/01/05 04:36:26;;;;;;;14.30;2.25;;;2.10;99.90;;;;;;4993498;28;20046;-79
2022/01/05 04:38:52;;;;;;;15.15;2.47;;;2.20;99.90;;;;;;4993501;28;20088;-80
2022/01/05 04:41:18;;;;;;;17.23;2.70;;;2.30;99.90;;;;;;4993366;28;20078;-80
2022/01/05 04:43:44;;;;;;;15.60;2.25;;;2.30;99.90;;;;;;4975792;28;20082;-80
2022/01/05 04:46:10;;;;;;;13.98;2.17;;;2.40;99.90;;;;;;4993392;28;20062;-80
2022/01/05 04:48:36;;;;;;;13.50;1.98;;;2.40;99.90;;;;;;4993125;28;20042;-80
2022/01/05 04:51:01;;;;;;;7.30;1.80;;;2.40;99.90;;;;;;4993272;28;20515;-79
2022/01/05 04:53:27;;;;;;;11.05;2.67;;;2.50;99.90;;;;;;4993176;28;20046;-79
2022/01/05 04:55:53;;;;;;;12.73;2.10;;;2.60;99.90;;;;;;4991916;28;20054;-80
2022/01/05 04:58:20;;;;;;;13.93;2.35;;;2.60;99.90;;;;;;4993218;28;20501;-79
2022/01/05 05:00:45;;;;;;;11.60;1.83;;;2.50;99.90;;;;;;4991865;28;20050;-80
2022/01/05 05:03:12;;;;;;;20.55;3.58;;;2.50;99.90;;;;;;4992668;28;20526;-80
2022/01/05 05:05:38;;;;;;;10.25;3.08;;;2.40;99.90;;;;;;4993009;28;20125;-81
2022/01/05 05:08:04;;;;;;;12.38;1.83;;;2.40;99.90;;;;;;4991850;28;20133;-80
2022/01/05 05:10:29;;;;;;;11.00;2.15;;;2.30;99.90;;;;;;4993427;28;20412;-81
2022/01/05 05:12:55;;;;;;;20.73;2.53;;;2.30;99.90;;;;;;4992901;28;20400;-81
2022/01/05 05:15:21;;;;;;;13.63;1.90;;;2.40;99.90;;;;;;4991736;28;20050;-79
2022/01/05 05:17:46;;;;;;;20.38;2.65;;;2.40;99.90;;;;;;4975178;28;20046;-82
2022/01/05 05:20:12;;;;;;;11.80;1.77;;;2.40;99.90;;;;;;4991252;28;20058;-81
2022/01/05 05:22:38;;;;;;;11.00;2.65;;;2.50;99.90;;;;;;4991684;28;20058;-82
2022/01/05 05:25:04;;;;;;;13.75;2.35;;;2.60;99.90;;;;;;4991578;28;20057;-82
2022/01/05 05:27:30;;;;;;;11.52;2.08;;;2.60;99.90;;;;;;4992743;28;20038;-82
2022/01/05 05:29:56;;;;;;;12.68;1.67;;;2.70;99.90;;;;;;4993267;28;20121;-82
2022/01/05 05:32:22;;;;;;;12.27;1.98;;;2.70;99.90;;;;;;4993044;28;20042;-82
2022/01/05 05:34:47;;;;;;;8.80;1.70;;;2.80;99.90;;;;;;4992835;28;20054;-80
2022/01/05 05:37:15;;;;;;;11.65;1.77;;;2.80;99.90;;;;;;4992699;28;20050;-81
2022/01/05 05:39:41;;;;;;;9.90;2.10;;;2.80;99.90;;;;;;4992767;28;20105;-81
2022/01/05 05:42:07;;;;;;;10.05;1.80;;;2.80;99.90;;;;;;4991926;28;20054;-82
2022/01/05 05:44:33;;;;;;;13.85;2.80;;;2.80;99.90;;;;;;4992862;28;20043;-82
2022/01/05 05:46:59;;;;;;;13.43;2.97;;;2.80;99.90;;;;;;4991890;28;20054;-82
2022/01/05 05:49:25;;;;;;;10.52;2.00;;;2.80;99.90;;;;;;4992655;28;20046;-83
2022/01/05 05:51:50;;;;;;;12.27;2.13;;;2.80;99.90;;;;;;4992593;28;20050;-82
2022/01/05 05:54:16;;;;;;;13.57;2.55;;;2.80;99.90;;;;;;4991438;28;20184;-82
2022/01/05 05:56:42;;;;;;;10.20;1.67;;;2.90;99.90;;;;;;4992782;28;20070;-82
2022/01/05 05:59:07;;;;;;;9.20;2.97;;;2.90;99.90;;;;;;4992823;28;20104;-82
2022/01/05 06:01:33;;;;;;;14.07;2.25;;;2.90;99.90;;;;;;4992726;28;20551;-81
2022/01/05 06:03:58;;;;;;;10.73;2.20;;;2.90;99.90;;;;;;4992635;28;20045;-82
2022/01/05 06:06:24;;;;;;;7.22;2.00;;;3.00;99.90;;;;;;4992596;28;20037;-82
2022/01/05 06:08:50;;;;;;;14.35;2.92;;;3.80;99.90;;;;;;4992601;28;20045;-80
2022/01/05 06:11:16;;;;;;;8.90;1.85;;;3.60;99.90;;;;;;4993200;28;20046;-81
2022/01/05 06:13:41;;;;;;;13.35;2.33;;;3.10;99.90;;;;;;4996644;28;20485;-80
2022/01/05 06:16:07;;;;;;;16.65;2.53;;;3.10;99.90;;;;;;4994919;28;20054;-78
2022/01/05 06:18:33;;;;;;;15.70;2.30;;;3.10;99.90;;;;;;4994712;28;20518;-79
2022/01/05 06:20:58;;;;;;;13.15;2.10;;;3.10;99.90;;;;;;4995591;28;20409;-83
2022/01/05 06:23:24;;;;;;;16.17;2.33;;;3.10;99.90;;;;;;4994739;28;20511;-84
2022/01/05 06:25:50;;;;;;;17.73;2.97;;;3.10;99.90;;;;;;4996363;28;20046;-84
2022/01/05 06:28:15;;;;;;;16.83;2.47;;;3.10;99.90;;;;;;5001318;28;20054;-81
2022/01/05 06:30:41;;;;;;;14.90;2.97;;;3.10;99.90;;;;;;4997019;28;20039;-84
2022/01/05 06:33:07;;;;;;;11.32;2.30;;;3.10;99.90;;;;;;4998527;28;20050;-79
2022/01/05 06:35:33;;;;;;;14.15;2.60;;;3.10;99.90;;;;;;4995623;28;20126;-77
2022/01/05 06:37:59;;;;;;;16.92;2.30;;;3.10;99.90;;;;;;4996142;28;20572;-78
2022/01/05 06:40:25;;;;;;;14.98;3.15;;;3.10;99.90;;;;;;4995777;28;20076;-77
2022/01/05 06:42:51;;;;;;;14.48;2.88;;;3.00;99.90;;;;;;4998763;28;20078;-84
2022/01/05 06:45:16;;;;;;;16.50;4.30;;;3.00;99.90;;;;;;5014196;28;20061;-81
2022/01/05 06:47:42;;;;;;;9.85;2.05;;;3.00;99.90;;;;;;5014656;28;20046;-79
2022/01/05 06:50:09;;;;;;;11.35;2.08;;;2.90;99.90;;;;;;5007946;28;20046;-81
2022/01/05 06:52:35;;;;;;;15.90;2.25;;;2.90;99.90;;;;;;4998018;28;20057;-84
2022/01/05 06:55:01;;;;;;;13.23;2.13;;;2.90;99.90;;;;;;4997055;28;20401;-85
2022/01/05 06:57:27;;;;;;;13.50;2.15;;;2.80;99.90;;;;;;4996720;28;20511;-84
2022/01/05 06:59:53;;;;;;;9.63;1.95;;;3.10;99.90;;;;;;4996118;28;20052;-81
2022/01/05 07:02:18;;;;;;;12.57;2.53;;;2.80;99.90;;;;;;4994542;28;20050;-83
2022/01/05 07:04:44;;;;;;;12.43;2.00;;;2.90;99.90;;;;;;4994321;28;20050;-83
2022/01/05 07:07:10;;;;;;;11.48;2.15;;;2.80;99.90;;;;;;4995580;28;20054;-84
2022/01/05 07:09:35;;;;;;;9.70;2.00;;;2.90;99.90;;;;;;4995062;28;20046;-83
2022/01/05 07:12:01;;;;;;;10.23;2.05;;;2.90;99.90;;;;;;4994139;28;20038;-83
2022/01/05 07:14:26;;;;;;;9.02;1.80;;;2.90;99.90;;;;;;4995187;28;20125;-80
2022/01/05 07:16:52;;;;;;;9.40;1.88;;;3.00;99.90;;;;;;4994964;28;20066;-83
2022/01/05 07:19:20;;;;;;;3.22;0.82;;;3.00;99.90;;;;;;4993586;28;20054;-80
2022/01/05 07:21:46;;;;;;;10.75;1.48;;;3.10;99.90;;;;;;4994909;28;20046;-83
2022/01/05 07:24:16;;;;;;;10.57;1.90;;;3.10;99.90;;;;;;4994728;28;20128;-81
2022/01/05 07:26:42;;;;;;;6.70;1.15;;;3.10;99.90;;;;;;4994823;28;20397;-83
2022/01/05 07:29:07;;;;;;;10.85;1.42;;;3.10;99.90;;;;;;4995025;28;20546;-79
2022/01/05 07:31:35;;;;;;;9.75;2.75;;;3.10;99.90;;;;;;4993466;28;20054;-82
2022/01/05 07:34:01;;;;;;;14.65;1.70;;;3.20;99.90;;;;;;4995295;28;20046;-81
2022/01/05 07:36:27;;;;;;;14.57;2.03;;;3.20;99.90;;;;;;4995006;28;20057;-78
2022/01/05 07:38:52;;;;;;;15.68;2.97;;;3.60;99.90;;;;;;4995345;28;20053;-79
2022/01/05 07:41:18;;;;;;;9.52;1.50;;;3.30;99.90;;;;;;4996390;28;20034;-80
2022/01/05 07:43:43;;;;;;;10.25;1.63;;;3.30;99.90;;;;;;4995378;28;20042;-79
2022/01/05 07:46:09;;;;;;;10.52;1.58;;;3.30;99.90;;;;;;4993125;28;20104;-79
2022/01/05 07:48:35;;;;;;;7.95;1.85;;;3.30;99.90;;;;;;4994692;28;20400;-79
2022/01/05 07:51:00;;;;;;;13.77;2.30;;;3.30;99.90;;;;;;4976888;28;20120;-78
2022/01/05 07:53:26;;;;;;;8.88;1.83;;;3.40;99.90;;;;;;4976740;28;20560;-78
2022/01/05 07:55:52;;;;;;;8.38;1.70;;;3.30;99.90;;;;;;4994435;28;20054;-78
2022/01/05 07:58:20;;;;;;;9.50;2.03;;;3.40;99.90;;;;;;4992974;28;20085;-83
2022/01/05 08:00:45;;;;;;;8.40;1.40;;;3.30;99.90;;;;;;4994309;28;20059;-79
2022/01/05 08:03:11;;;;;;;9.45;1.38;;;4.50;99.90;;;;;;4994269;28;20042;-77
2022/01/05 08:05:36;;;;;;;7.50;1.00;;;3.40;99.90;;;;;;4994213;28;20116;-78
2022/01/05 08:08:02;;;;;;;7.93;1.40;;;3.40;99.90;;;;;;4994109;28;20077;-79
2022/01/05 08:10:28;;;;;;;5.93;1.05;;;3.40;99.90;;;;;;4992593;28;20054;-78
2022/01/05 08:12:54;;;;;;;7.07;1.15;;;3.40;99.90;;;;;;4993883;28;20042;-78
2022/01/05 08:15:19;;;;;;;10.07;1.63;;;3.40;99.90;;;;;;4994583;28;20173;-86
2022/01/05 08:17:45;;;;;;;5.60;1.35;;;3.40;99.90;;;;;;4963177;28;20054;-84
2022/01/05 08:20:11;;;;;;;5.57;1.10;;;4.40;99.90;;;;;;4974649;28;20055;-84
2022/01/05 08:22:40;;;;;;;8.75;1.33;;;3.40;99.90;;;;;;4974552;28;20046;-79
2022/01/05 08:25:07;;;;;;;6.05;1.38;;;3.30;99.90;;;;;;4974067;28;20054;-84
2022/01/05 08:27:33;;;;;;;6.22;1.73;;;3.40;99.90;;;;;;4974457;28;20043;-85
2022/01/05 08:30:04;;;;;;;6.25;1.20;;;4.10;99.90;;;;;;4942861;28;20053;-82
2022/01/05 08:32:30;;;;;;;7.82;1.50;;;3.50;99.90;;;;;;4975352;28;20058;-84
2022/01/05 08:34:55;;;;;;;6.43;1.20;;;3.60;99.90;;;;;;4974588;28;20400;-84
2022/01/05 08:37:21;;;;;;;9.45;1.40;;;3.70;99.90;;;;;;4974019;28;20043;-84
2022/01/05 08:39:51;;;;;;;5.20;1.35;;;3.60;99.90;;;;;;4975399;28;20038;-84
2022/01/05 08:42:18;;;;;;;6.13;1.58;;;3.60;99.90;;;;;;4976944;28;20059;-85
2022/01/05 08:44:43;;;;;;;5.38;1.15;;;4.50;99.90;;;;;;4975128;28;20553;-84
2022/01/05 08:47:09;;;;;;;8.30;1.58;;;3.60;99.90;;;;;;4974611;28;20129;-85
2022/01/05 08:49:35;;;;;;;8.70;1.50;;;3.60;99.90;;;;;;4974583;28;20130;-85
2022/01/05 08:52:00;;;;;;;6.13;1.17;;;3.70;99.90;;;;;;4957652;28;20078;-86
2022/01/05 08:54:27;;;;;;;6.88;1.10;;;3.70;99.90;;;;;;4974540;28;20039;-85
2022/01/05 08:56:54;;;;;;;12.07;1.40;;;3.80;99.90;;;;;;4974848;28;20039;-86
2022/01/05 08:59:20;;;;;;;6.72;1.20;;;3.80;99.90;;;;;;4957387;28;20145;-84
2022/01/05 09:01:46;;;;;;;5.55;1.08;;;3.80;99.90;;;;;;4974169;28;20053;-84
2022/01/05 09:04:11;;;;;;;4.15;1.13;;;3.80;99.90;;;;;;4956970;28;20059;-84
2022/01/05 09:06:37;;;;;;;6.45;0.90;;;3.90;99.90;;;;;;4957322;28;20063;-84
2022/01/05 09:09:04;;;;;;;8.20;1.23;;;3.90;99.90;;;;;;4974251;28;20042;-84
2022/01/05 09:11:30;;;;;;;7.65;1.08;;;3.90;99.90;;;;;;4973747;28;20141;-85
2022/01/05 09:13:55;;;;;;;7.68;1.65;;;4.00;99.90;;;;;;4957026;28;20086;-86
2022/01/05 09:16:21;;;;;;;5.88;1.42;;;4.00;99.90;;;;;;4974177;28;20051;-84
2022/01/05 09:18:47;;;;;;;7.22;1.42;;;4.10;99.90;;;;;;4957018;28;20051;-83
2022/01/05 09:21:13;;;;;;;8.68;1.30;;;4.10;99.90;;;;;;4956568;28;20055;-84
2022/01/05 09:23:39;;;;;;;14.80;1.45;;;5.00;99.90;;;;;;4957117;28;20051;-84
2022/01/05 09:26:05;;;;;;;7.63;1.27;;;4.20;99.90;;;;;;4940268;28;20146;-84
2022/01/05 09:28:30;;;;;;;13.77;1.70;;;4.30;99.90;;;;;;4940516;28;20493;-84
2022/01/05 09:30:56;;;;;;;10.25;1.60;;;4.30;99.90;;;;;;4974265;28;20125;-85
2022/01/05 09:33:23;;;;;;;11.48;1.75;;;4.30;99.90;;;;;;4978089;28;20455;-84
2022/01/05 09:35:52;;;;;;;9.43;1.67;;;4.30;99.90;;;;;;4974163;28;20053;-84
2022/01/05 09:38:37;;;;;;;16.65;1.70;;;4.30;99.90;;;;;;4973653;28;20050;-85
2022/01/05 09:43:55;;;;;;;14.93;2.20;;;4.50;99.90;;;;;;4973720;28;20090;-81
2022/01/05 09:46:32;;;;;;;19.25;2.45;;;4.60;99.90;;;;;;4973506;28;20050;-84
2022/01/05 09:49:10;;;;;;;15.52;2.53;;;4.60;99.90;;;;;;4942792;28;20133;-83
2022/01/05 09:51:40;;;;;;;10.32;2.03;;;4.60;99.90;;;;;;4978128;28;20054;-83
2022/01/05 09:54:08;;;;;;;12.90;1.52;;;4.70;99.90;;;;;;4977451;28;20042;-83
2022/01/05 09:56:35;;;;;;;12.80;2.42;;;4.80;99.90;;;;;;4977301;28;20122;-80
2022/01/05 09:59:02;;;;;;;13.98;1.73;;;4.90;99.90;;;;;;4977685;28;20054;-84
2022/01/05 10:01:34;;;;;;;12.93;2.05;;;5.80;99.90;;;;;;4977842;28;20074;-79
2022/01/05 10:04:00;;;;;;;8.13;1.60;;;5.10;99.90;;;;;;4960953;28;20054;-81
2022/01/05 10:06:26;;;;;;;14.52;1.85;;;5.10;99.90;;;;;;4977980;28;20050;-82
2022/01/05 10:08:52;;;;;;;9.32;1.70;;;5.10;99.90;;;;;;4977473;28;20039;-79
2022/01/05 10:11:20;;;;;;;16.25;2.85;;;5.10;99.90;;;;;;4978395;28;20046;-81
2022/01/05 10:13:46;;;;;;;18.40;2.20;;;5.20;99.90;;;;;;4980480;28;20544;-80
2022/01/05 10:16:12;;;;;;;10.88;1.48;;;5.40;99.90;;;;;;4983610;28;20054;-83
2022/01/05 10:18:39;;;;;;;11.32;1.55;;;5.50;99.90;;;;;;4984281;28;20054;-85
2022/01/05 10:21:06;;;;;;;15.30;1.75;;;5.50;99.90;;;;;;4988131;28;20085;-81
2022/01/05 10:23:35;;;;;;;11.68;1.85;;;5.50;99.90;;;;;;4953322;28;20051;-81
2022/01/05 10:26:20;;;;;;;12.80;1.98;;;5.50;99.90;;;;;;4990190;28;20077;-84
2022/01/05 10:28:46;;;;;;;11.43;1.60;;;5.50;99.90;;;;;;4992452;28;20240;-79
2022/01/05 10:31:23;;;;;;;14.07;2.15;;;5.60;99.90;;;;;;4982808;28;20116;-80
2022/01/05 10:33:50;;;;;;;11.50;1.88;;;5.60;99.90;;;;;;4978369;28;20097;-79
2022/01/05 10:36:16;;;;;;;14.80;3.15;;;5.70;99.90;;;;;;4976864;28;20047;-82
2022/01/05 10:38:56;;;;;;;16.02;2.78;;;5.70;99.90;;;;;;4976831;28;20042;-84
2022/01/05 10:41:25;;;;;;;11.82;1.77;;;5.70;99.90;;;;;;4976581;28;20412;-84
2022/01/05 10:44:19;;;;;;;14.00;1.90;;;5.80;99.90;;;;;;4976340;28;20049;-83
2022/01/05 10:46:49;;;;;;;12.55;2.40;;;5.80;99.90;;;;;;4976659;28;20043;-84
2022/01/05 10:49:31;;;;;;;10.02;2.17;;;5.90;99.90;;;;;;4976236;28;20493;-80
2022/01/05 10:52:00;;;;;;;12.55;2.10;;;6.30;99.90;;;;;;4976809;28;20105;-83
2022/01/05 10:54:28;;;;;;;14.88;1.70;;;7.10;99.90;;;;;;4976261;28;20097;-83
2022/01/05 10:56:54;;;;;;;13.40;2.28;;;6.00;99.90;;;;;;4976601;28;20076;-83
2022/01/05 10:59:35;;;;;;;10.73;1.95;;;6.10;99.90;;;;;;4975804;28;20520;-83
2022/01/05 11:02:19;;;;;;;7.50;1.48;;;6.10;99.90;;;;;;4976100;28;20046;-79
2022/01/05 11:04:44;;;;;;;15.00;2.95;;;6.20;99.90;;;;;;4975724;28;20106;-81
2022/01/05 11:07:20;;;;;;;17.42;2.03;;;6.40;99.90;;;;;;4975989;28;20441;-84
2022/01/05 11:10:14;;;;;;;10.52;2.05;;;6.60;99.90;;;;;;4975756;28;20089;-81
2022/01/05 11:12:42;;;;;;;14.30;2.33;;;6.70;99.90;;;;;;4973481;28;20047;-81
2022/01/05 11:15:32;;;;;;;5.75;1.35;;;6.80;99.90;;;;;;4975537;28;20047;-79
2022/01/05 11:18:11;;;;;;;13.52;2.53;;;6.80;99.90;;;;;;4975415;28;20470;-79
2022/01/05 11:20:39;;;;;;;14.32;1.52;;;6.80;99.90;;;;;;4975443;28;20133;-83
2022/01/05 11:23:05;;;;;;;9.70;1.67;;;7.70;99.90;;;;;;4975636;28;20042;-83
2022/01/05 11:25:35;;;;;;;15.18;2.22;;;6.80;99.90;;;;;;4975541;28;20053;-83
2022/01/05 11:28:01;;;;;;;16.02;2.95;;;6.80;99.90;;;;;;4975166;28;20101;-84
2022/01/05 11:30:27;;;;;;;11.10;2.47;;;6.80;99.90;;;;;;4975664;28;20413;-83
2022/01/05 11:32:54;;;;;;;14.77;2.60;;;6.80;99.90;;;;;;4959318;28;20047;-82
2022/01/05 11:35:19;;;;;;;15.85;2.47;;;6.80;99.90;;;;;;4979501;28;20113;-79
2022/01/05 11:37:46;;;;;;;12.50;3.08;;;7.00;99.90;;;;;;4976032;28;20038;-79
2022/01/05 11:40:13;;;;;;;9.98;1.90;;;6.80;99.90;;;;;;4957267;28;20055;-80
2022/01/05 11:42:40;;;;;;;9.25;2.28;;;6.80;99.90;;;;;;4974821;28;20043;-81
2022/01/05 11:45:08;;;;;;;12.60;1.98;;;6.80;99.90;;;;;;4975090;28;20083;-81
2022/01/05 11:47:40;;;;;;;16.20;2.35;;;6.90;99.90;;;;;;4957712;28;20046;-81
2022/01/05 11:50:25;;;;;;;18.58;2.50;;;7.00;99.90;;;;;;4974964;28;20046;-79
2022/01/05 11:53:01;;;;;;;12.73;2.25;;;7.00;99.90;;;;;;4975580;28;20049;-80
2022/01/05 11:55:28;;;;;;;20.98;2.90;;;7.10;99.90;;;;;;4941870;28;20049;-78
2022/01/05 11:58:18;;;;;;;13.57;3.20;;;7.10;99.90;;;;;;4974733;28;20105;-80
2022/01/05 12:00:45;;;;;;;11.57;2.20;;;7.40;99.90;;;;;;4974671;28;20054;-81
2022/01/05 12:03:11;;;;;;;9.52;1.92;;;7.40;99.90;;;;;;4974780;28;20043;-80
2022/01/05 12:06:05;;;;;;;10.40;2.00;;;7.40;99.90;;;;;;4974694;28;20057;-80
2022/01/05 12:08:48;;;;;;;13.23;2.40;;;7.60;99.90;;;;;;4974722;28;20453;-81
2022/01/05 12:11:42;;;;;;;16.88;3.28;;;7.50;99.90;;;;;;4957212;28;20051;-81
2022/01/05 12:14:19;;;;;;;15.80;2.10;;;7.40;99.90;;;;;;4974355;28;20038;-79
2022/01/05 12:19:32;;;;;;;17.77;3.83;;;7.70;99.90;;;;;;4957100;28;20581;-81
2022/01/05 12:22:00;;;;;;;14.52;2.38;;;7.30;99.90;;;;;;4974528;28;20053;-80
2022/01/05 12:24:54;;;;;;;16.38;2.78;;;7.40;99.90;;;;;;4956938;28;20049;-79
2022/01/05 12:27:21;;;;;;;9.63;1.38;;;7.40;99.90;;;;;;4956759;28;20053;-80
2022/01/05 12:29:48;;;;;;;11.98;1.50;;;7.40;99.90;;;;;;4974157;28;20529;-79
2022/01/05 12:32:35;;;;;;;15.85;1.80;;;7.50;99.90;;;;;;4974071;28;20047;-80
2022/01/05 12:35:15;;;;;;;10.77;2.00;;;7.40;99.90;;;;;;4940389;28;20065;-80
2022/01/05 12:37:56;;;;;;;9.35;1.75;;;7.40;99.90;;;;;;4958608;28;20051;-81
2022/01/05 12:40:22;;;;;;;11.40;1.60;;;7.30;99.90;;;;;;4974301;28;20043;-80
2022/01/05 12:42:48;;;;;;;9.45;2.55;;;7.20;99.90;;;;;;4956762;28;20046;-81
2022/01/05 12:45:44;;;;;;;10.73;1.50;;;7.20;99.90;;;;;;4956637;28;20408;-80
2022/01/05 12:48:35;;;;;;;11.18;1.60;;;7.20;99.90;;;;;;4956792;28;20065;-80
2022/01/05 12:51:32;;;;;;;16.35;2.28;;;7.10;99.90;;;;;;4914372;29;20052;-81
2022/01/05 12:54:19;;;;;;;9.77;1.95;;;7.10;99.90;;;;;;4914516;29;20056;-80
2022/01/05 12:57:00;;;;;;;9.13;1.05;;;7.00;99.90;;;;;;4913974;29;20056;-81
2022/01/05 12:59:34;;;;;;;4.45;1.00;;;7.00;99.90;;;;;;4914260;29;20044;-78
2022/01/05 13:02:06;;;;;;;13.50;1.98;;;7.10;99.90;;;;;;4898370;29;20063;-81
2022/01/05 13:04:33;;;;;;;3.42;0.77;;;7.00;99.90;;;;;;4913707;29;20055;-80
2022/01/05 13:07:02;;;;;;;4.65;1.40;;;7.00;99.90;;;;;;4914267;29;20059;-81
2022/01/05 13:09:39;;;;;;;5.60;1.08;;;6.90;99.90;;;;;;4913869;29;20056;-81